Time;durP1;ratioP1;P1;durP2;ratioP2;P2;SDS_P1;SDS_P2;PMS_P1;PMS_P2;Temp;Humidity;BMP_temperature;BMP_pressure;BME280_temperature;BME280_humidity;BME280_pressure;Samples;Min_cycle;Max_cycle;Signal;HPM_P1;HPM_P2
2021/11/09 00:04:41;;;;;;;18.45;6.57;;;;;;;5.25;100.00;99248.41;10266068;28;20044;-56
2021/11/09 00:09:56;;;;;;;13.60;6.30;;;;;;;5.23;100.00;99248.50;10266293;28;20142;-57
2021/11/09 00:15:01;;;;;;;12.68;6.47;;;;;;;5.20;100.00;99239.84;10269160;28;20062;-59
2021/11/09 00:20:06;;;;;;;11.63;5.82;;;;;;;5.21;100.00;99246.91;10269983;28;20053;-58
2021/11/09 00:25:11;;;;;;;13.13;6.45;;;;;;;5.23;100.00;99244.97;10267179;28;20550;-59
2021/11/09 00:30:16;;;;;;;12.30;6.43;;;;;;;5.21;100.00;99257.59;10255127;28;20790;-58
2021/11/09 00:35:22;;;;;;;17.80;6.43;;;;;;;5.19;100.00;99260.38;10276278;28;20051;-59
2021/11/09 00:40:30;;;;;;;15.57;6.25;;;;;;;5.19;100.00;99257.69;10265447;28;20059;-59
2021/11/09 00:45:34;;;;;;;17.33;5.88;;;;;;;5.17;100.00;99262.28;10254722;28;20042;-59
2021/11/09 00:50:39;;;;;;;15.40;5.88;;;;;;;5.13;100.00;99258.09;10264074;28;20098;-58
2021/11/09 00:55:44;;;;;;;10.88;5.82;;;;;;;5.10;100.00;99261.00;10265594;28;20073;-59
2021/11/09 01:00:47;;;;;;;18.90;6.68;;;;;;;5.05;100.00;99263.13;10268314;28;20058;-58
2021/11/09 01:05:50;;;;;;;15.07;6.45;;;;;;;5.01;100.00;99272.31;10275536;28;20057;-59
2021/11/09 01:10:55;;;;;;;17.15;6.85;;;;;;;4.98;100.00;99272.53;10254827;28;20050;-59
2021/11/09 01:15:59;;;;;;;14.13;5.72;;;;;;;4.92;100.00;99281.81;10264011;28;20503;-58
2021/11/09 01:21:04;;;;;;;17.70;6.55;;;;;;;4.85;100.00;99272.50;10268779;28;20423;-56
2021/11/09 01:26:09;;;;;;;13.73;6.40;;;;;;;4.82;100.00;99275.41;10274984;28;20549;-57
2021/11/09 01:31:12;;;;;;;18.73;6.50;;;;;;;4.76;100.00;99269.50;10271268;28;20078;-57
2021/11/09 01:36:16;;;;;;;16.67;6.18;;;;;;;4.73;100.00;99282.19;10274146;28;20059;-54
2021/11/09 01:41:21;;;;;;;17.15;5.90;;;;;;;4.73;100.00;99279.53;10278085;28;20082;-56
2021/11/09 01:46:24;;;;;;;16.15;6.05;;;;;;;4.73;100.00;99290.22;10279754;28;20042;-57
2021/11/09 01:51:29;;;;;;;16.33;6.32;;;;;;;4.73;100.00;99285.72;10277069;28;20073;-57
2021/11/09 01:56:35;;;;;;;13.13;6.13;;;;;;;4.74;100.00;99291.91;10277117;28;20042;-55
2021/11/09 02:01:39;;;;;;;14.43;6.28;;;;;;;4.74;100.00;99291.91;10278238;28;20210;-58
2021/11/09 02:06:42;;;;;;;15.10;6.63;;;;;;;4.76;100.00;99290.00;10280500;28;20106;-57
2021/11/09 02:11:48;;;;;;;16.65;6.35;;;;;;;4.79;100.00;99292.44;10279522;28;20051;-56
2021/11/09 02:16:52;;;;;;;14.70;6.75;;;;;;;4.80;100.00;99296.84;10278114;28;20444;-58
2021/11/09 02:21:57;;;;;;;13.40;5.93;;;;;;;4.83;100.00;99296.63;10279054;28;20039;-57
2021/11/09 02:27:00;;;;;;;14.63;6.40;;;;;;;4.83;100.00;99301.09;10290540;28;20050;-58
2021/11/09 02:32:05;;;;;;;15.73;6.72;;;;;;;4.85;100.00;99309.88;10279047;28;20043;-57
2021/11/09 02:37:09;;;;;;;20.45;7.13;;;;;;;4.86;100.00;99304.44;10273914;28;20668;-58
2021/11/09 02:42:16;;;;;;;18.20;6.70;;;;;;;4.86;100.00;99299.09;10276079;28;20472;-56
2021/11/09 02:47:21;;;;;;;15.07;6.80;;;;;;;4.91;100.00;99296.13;10248581;28;20415;-57
2021/11/09 02:52:27;;;;;;;12.48;6.00;;;;;;;4.94;100.00;99293.22;10278956;28;20055;-58
2021/11/09 02:57:37;;;;;;;14.60;6.43;;;;;;;4.96;100.00;99296.66;10269847;28;20058;-57
2021/11/09 03:02:45;;;;;;;15.88;6.70;;;;;;;4.99;100.00;99299.13;10263987;28;20046;-57
2021/11/09 03:07:53;;;;;;;16.95;6.30;;;;;;;5.03;100.00;99311.31;10281410;28;20369;-56
2021/11/09 03:12:56;;;;;;;14.65;6.18;;;;;;;5.04;100.00;99306.81;10258530;28;20050;-57
2021/11/09 03:18:02;;;;;;;14.38;6.75;;;;;;;5.06;100.00;99310.25;10266004;28;20047;-56
2021/11/09 03:44:32;;;;;;;;;;;;;;;5.03;100.00;99329.16;10277571;28;20471;-55
2021/11/09 03:49:36;;;;;;;12.25;6.85;;;;;;;5.04;100.00;99330.84;10273537;28;19961;-54
2021/11/09 03:54:42;;;;;;;15.25;6.97;;;;;;;5.05;100.00;99337.91;10275295;28;20407;-59
2021/11/09 03:59:54;;;;;;;17.58;6.70;;;;;;;5.04;100.00;99336.19;10275152;28;20039;-54
2021/11/09 04:04:59;;;;;;;15.85;6.80;;;;;;;5.03;100.00;99338.03;10276649;28;20058;-54
2021/11/09 04:10:16;;;;;;;19.33;7.43;;;;;;;5.05;100.00;99351.28;10272773;28;20142;-54
2021/11/09 04:31:53;;;;;;;18.60;7.38;;;;;;;5.12;100.00;99363.25;10269399;28;20525;-55
2021/11/09 05:09:14;;;;;;;17.73;7.00;;;;;;;5.10;100.00;99373.19;10275637;28;20061;-55
2021/11/09 05:14:19;;;;;;;15.20;6.43;;;;;;;5.11;100.00;99380.25;10266456;28;20062;-57
2021/11/09 05:19:22;;;;;;;15.43;6.60;;;;;;;5.09;100.00;99384.84;10273274;28;20050;-55
2021/11/09 05:24:25;;;;;;;14.15;6.95;;;;;;;5.08;100.00;99391.97;10266222;28;20129;-57
2021/11/09 05:29:29;;;;;;;16.98;6.72;;;;;;;5.08;100.00;99399.16;10267575;28;20144;-58
2021/11/09 05:34:33;;;;;;;15.85;7.75;;;;;;;5.07;100.00;99408.97;10258353;28;20070;-59
2021/11/09 05:39:43;;;;;;;15.80;7.45;;;;;;;5.07;100.00;99416.97;10265377;28;20050;-58
2021/11/09 05:44:49;;;;;;;12.80;7.13;;;;;;;5.09;100.00;99424.91;10255396;28;20554;-58
2021/11/09 05:49:52;;;;;;;17.75;8.40;;;;;;;5.09;100.00;99424.91;10276937;28;20078;-56
2021/11/09 05:54:55;;;;;;;15.65;7.60;;;;;;;5.09;100.00;99425.75;10278733;28;20063;-57
2021/11/09 06:00:02;;;;;;;17.40;8.18;;;;;;;5.12;100.00;99440.72;10282819;28;20053;-59
2021/11/09 06:05:14;;;;;;;15.38;8.13;;;;;;;5.11;100.00;99439.03;10278237;28;20043;-56
2021/11/09 06:10:17;;;;;;;16.60;7.68;;;;;;;5.12;100.00;99445.22;10277066;28;20046;-59
2021/11/09 06:15:21;;;;;;;19.92;8.23;;;;;;;5.11;100.00;99449.72;10277346;28;20039;-58
2021/11/09 06:20:25;;;;;;;17.70;8.35;;;;;;;5.13;100.00;99460.28;10271784;28;20140;-56
2021/11/09 06:25:32;;;;;;;15.75;7.85;;;;;;;5.12;100.00;99472.75;10312724;28;20082;-54
2021/11/09 06:30:37;;;;;;;19.90;8.88;;;;;;;5.13;100.00;99469.13;10333297;28;20456;-58
2021/11/09 06:35:40;;;;;;;18.67;7.53;;;;;;;5.16;100.00;99479.63;10340752;28;20030;-56
2021/11/09 06:40:43;;;;;;;15.02;8.25;;;;;;;5.16;100.00;99484.97;10336313;28;20529;-58
2021/11/09 06:45:49;;;;;;;19.33;8.05;;;;;;;5.17;100.00;99485.84;10340642;28;20109;-57
2021/11/09 06:50:53;;;;;;;18.80;7.32;;;;;;;5.21;100.00;99498.91;10337769;28;20495;-59
2021/11/09 06:55:57;;;;;;;16.30;7.45;;;;;;;5.24;100.00;99509.38;10346243;28;20054;-57
2021/11/09 07:01:01;;;;;;;15.88;8.15;;;;;;;5.28;100.00;99519.88;10352382;28;20046;-58
2021/11/09 07:06:05;;;;;;;16.23;7.25;;;;;;;5.32;100.00;99524.06;10333520;28;20045;-59
2021/11/09 07:11:08;;;;;;;17.33;8.25;;;;;;;5.36;100.00;99538.91;10319691;28;20056;-59
2021/11/09 07:16:12;;;;;;;14.35;7.60;;;;;;;5.40;100.00;99551.13;10332533;28;20117;-59
2021/11/09 07:21:15;;;;;;;13.95;7.00;;;;;;;5.46;100.00;99556.09;10335928;28;20521;-58
2021/11/09 07:26:18;;;;;;;15.02;6.97;;;;;;;5.50;100.00;99562.94;10336664;28;20045;-58
2021/11/09 07:31:25;;;;;;;17.92;7.25;;;;;;;5.55;100.00;99566.16;10334621;28;20121;-58
2021/11/09 07:36:28;;;;;;;15.95;6.90;;;;;;;5.62;100.00;99563.06;10338784;28;20054;-57
2021/11/09 07:41:31;;;;;;;17.23;7.10;;;;;;;5.66;100.00;99567.28;10335954;28;20127;-56
2021/11/09 07:46:37;;;;;;;17.67;6.82;;;;;;;5.71;100.00;99565.13;10336020;28;20379;-55
2021/11/09 07:51:40;;;;;;;15.93;6.75;;;;;;;5.77;100.00;99575.44;10335079;28;20044;-54
2021/11/09 07:56:43;;;;;;;10.60;5.75;;;;;;;5.84;100.00;99574.06;10338068;28;20042;-58
2021/11/09 08:01:56;;;;;;;15.15;6.10;;;;;;;5.91;100.00;99577.19;10325962;28;20069;-57
2021/11/09 08:07:02;;;;;;;21.25;5.97;;;;;;;5.99;100.00;99579.34;10336025;28;20121;-58
2021/11/09 08:12:06;;;;;;;15.90;6.07;;;;;;;6.07;100.00;99571.69;10332845;28;20050;-57
2021/11/09 08:17:13;;;;;;;16.38;6.00;;;;;;;6.15;100.00;99580.06;10326095;28;20042;-57
2021/11/09 08:22:16;;;;;;;14.73;6.10;;;;;;;6.23;100.00;99573.31;10332206;28;20054;-57
2021/11/09 08:27:19;;;;;;;16.17;7.47;;;;;;;6.27;100.00;99577.50;10331364;28;20046;-56
2021/11/09 08:32:24;;;;;;;17.48;7.30;;;;;;;6.35;100.00;99580.50;10323003;28;20534;-57
2021/11/09 08:37:28;;;;;;;15.07;7.05;;;;;;;6.38;100.00;99569.59;10330040;28;20050;-55
2021/11/09 08:42:34;;;;;;;19.27;6.25;;;;;;;6.41;100.00;99574.72;10318419;28;20050;-57
2021/11/09 08:47:43;;;;;;;15.45;5.65;;;;;;;6.39;100.00;99568.63;10327264;28;20499;-57
2021/11/09 08:52:46;;;;;;;20.15;5.95;;;;;;;6.41;100.00;99564.00;10326480;28;20034;-58
2021/11/09 09:08:32;;;;;;;17.48;6.53;;;;;;;6.47;100.00;99552.88;10330610;28;20061;-54
2021/11/09 09:13:36;;;;;;;19.30;7.00;;;;;;;6.58;100.00;99564.66;10327943;28;20125;-58
2021/11/09 09:18:41;;;;;;;14.95;6.53;;;;;;;6.70;100.00;99566.47;10341178;28;20462;-56
2021/11/09 09:23:47;;;;;;;16.58;6.80;;;;;;;6.83;100.00;99581.69;10319720;28;20064;-56
2021/11/09 09:29:09;;;;;;;21.05;7.85;;;;;;;6.96;100.00;99577.19;10330007;28;20503;-57
2021/11/09 09:55:45;;;;;;;21.25;6.90;;;;;;;7.73;100.00;99584.13;10333785;28;20054;-56
2021/11/09 10:00:49;;;;;;;19.73;7.07;;;;;;;7.94;100.00;99587.00;10356597;28;20044;-58
2021/11/09 10:05:53;;;;;;;18.27;6.30;;;;;;;8.08;100.00;99577.94;10338302;28;20120;-57
2021/11/09 10:10:56;;;;;;;19.48;6.63;;;;;;;8.22;100.00;99579.53;10332942;28;20081;-56
2021/11/09 10:15:59;;;;;;;15.73;7.40;;;;;;;8.33;100.00;99578.72;10313651;28;20046;-57
2021/11/09 10:21:06;;;;;;;24.02;7.78;;;;;;;8.50;100.00;99577.47;10332651;28;20073;-56
2021/11/09 10:26:12;;;;;;;17.25;7.70;;;;;;;8.58;100.00;99575.03;10331316;28;20060;-57
2021/11/09 10:31:16;;;;;;;16.33;5.43;;;;;;;8.70;100.00;99565.13;10327018;28;20470;-57
2021/11/09 10:36:24;;;;;;;17.33;5.30;;;;;;;8.78;100.00;99559.16;10328768;28;20116;-56
2021/11/09 10:41:27;;;;;;;15.88;5.28;;;;;;;8.94;100.00;99565.03;10332222;28;20427;-57
2021/11/09 10:46:30;;;;;;;16.17;6.18;;;;;;;9.13;100.00;99555.47;10327681;28;20038;-57
2021/11/09 10:51:58;;;;;;;18.52;4.70;;;;;;;9.22;100.00;99557.44;10330699;28;20072;-55
2021/11/09 10:57:12;;;;;;;9.75;2.92;;;;;;;9.36;100.00;99550.06;10340009;28;20099;-55
2021/11/09 11:07:54;;;;;;;9.80;3.10;;;;;;;9.67;100.00;99558.31;10331723;28;20054;-58
2021/11/09 11:13:17;;;;;;;10.15;3.75;;;;;;;9.85;100.00;99542.44;10341818;28;20469;-54
2021/11/09 11:18:29;;;;;;;11.43;3.35;;;;;;;10.01;100.00;99547.41;10326370;28;20124;-57
2021/11/09 11:23:36;;;;;;;10.25;2.92;;;;;;;10.14;100.00;99531.91;10325064;28;20069;-56
2021/11/09 11:28:45;;;;;;;9.63;3.05;;;;;;;10.24;100.00;99539.19;10330575;28;20042;-57
2021/11/09 11:33:49;;;;;;;8.15;3.58;;;;;;;10.34;100.00;99532.03;10326593;28;20138;-58
2021/11/09 11:38:56;;;;;;;11.82;3.38;;;;;;;10.44;100.00;99522.19;10448627;23;20111;-82
2021/11/09 11:44:05;;;;;;;6.47;2.83;;;;;;;10.57;100.00;99513.03;10453258;28;20052;-82
2021/11/09 11:49:11;;;;;;;9.60;3.20;;;;;;;10.76;100.00;99509.56;10458031;28;20041;-83
2021/11/09 11:54:19;;;;;;;14.88;3.17;;;;;;;10.94;100.00;99507.09;10469997;28;20045;-83
2021/11/09 11:59:41;;;;;;;9.15;3.50;;;;;;;11.03;100.00;99508.94;10481115;28;20417;-82
2021/11/09 12:04:54;;;;;;;;;;;;;;;10.96;100.00;99505.13;10472551;28;20458;-83
2021/11/09 12:10:06;;;;;;;5.63;1.85;;;;;;;11.15;100.00;99511.53;10435162;28;19971;-83
2021/11/09 12:15:10;;;;;;;6.80;2.00;;;;;;;11.33;100.00;99506.31;10432936;28;20517;-83
2021/11/09 12:20:15;;;;;;;6.85;1.90;;;;;;;11.43;100.00;99496.38;10430381;28;20137;-83
2021/11/09 12:25:40;;;;;;;5.32;1.48;;;;;;;11.52;100.00;99498.28;10431757;28;20045;-83
2021/11/09 12:30:48;;;;;;;3.85;1.20;;;;;;;11.77;100.00;99490.56;10430583;28;20047;-83
2021/11/09 12:36:20;;;;;;;3.75;1.20;;;;;;;11.86;100.00;99488.88;10451541;28;20049;-83
2021/11/09 12:41:29;;;;;;;5.82;1.40;;;;;;;12.14;100.00;99479.06;10434065;28;20060;-83
2021/11/09 12:46:36;;;;;;;3.67;1.13;;;;;;;12.42;100.00;99467.47;10427084;28;20076;-83
2021/11/09 12:51:41;;;;;;;4.45;1.13;;;;;;;12.59;100.00;99468.53;10447679;28;20049;-83
2021/11/09 12:56:47;;;;;;;4.85;1.20;;;;;;;12.59;100.00;99468.53;10451666;28;20101;-82
2021/11/09 13:02:02;;;;;;;2.72;1.02;;;;;;;12.60;100.00;99467.53;10436710;28;20047;-84
2021/11/09 13:07:14;;;;;;;3.38;1.20;;;;;;;12.70;100.00;99464.81;10436487;28;20045;-84
2021/11/09 13:12:21;;;;;;;2.50;1.02;;;;;;;12.64;100.00;99463.53;10452715;28;20045;-84
2021/11/09 13:17:32;;;;;;;5.68;1.10;;;;;;;12.70;100.00;99453.97;10456947;28;20489;-83
2021/11/09 13:22:35;;;;;;;3.13;1.10;;;;;;;12.72;100.00;99454.69;10454791;28;20147;-83
2021/11/09 13:27:45;;;;;;;3.28;1.00;;;;;;;12.70;100.00;99456.69;10455530;28;20053;-84
2021/11/09 13:32:51;;;;;;;3.00;1.10;;;;;;;12.73;100.00;99457.22;10456458;28;20124;-83
2021/11/09 13:38:08;;;;;;;4.05;1.13;;;;;;;12.87;100.00;99450.50;10441626;28;20140;-83
2021/11/09 13:43:14;;;;;;;2.15;0.95;;;;;;;12.95;100.00;99464.09;10443545;28;20088;-84
2021/11/09 13:48:20;;;;;;;3.25;0.90;;;;;;;13.05;100.00;99455.06;10441485;28;20071;-84
2021/11/09 13:53:24;;;;;;;3.35;0.82;;;;;;;13.09;98.77;99445.66;10443403;28;20071;-83
2021/11/09 13:58:30;;;;;;;3.55;0.90;;;;;;;13.29;100.00;99438.25;10443664;28;20057;-85
2021/11/09 14:03:41;;;;;;;2.40;0.80;;;;;;;13.26;100.00;99434.00;10461835;28;20063;-86
2021/11/09 14:09:08;;;;;;;2.72;0.98;;;;;;;13.25;94.15;99439.56;10451179;28;20124;-87
2021/11/09 14:19:40;;;;;;;4.13;1.00;;;;;;;13.04;89.54;99432.59;10433876;28;20051;-82
2021/11/09 14:24:56;;;;;;;3.53;1.00;;;;;;;12.94;78.48;99431.78;10430580;28;20053;-86
2021/11/09 14:30:01;;;;;;;3.33;0.90;;;;;;;12.89;90.58;99426.81;10434838;28;20052;-84
2021/11/09 14:35:08;;;;;;;1.65;0.80;;;;;;;12.79;86.05;99431.44;10436916;28;20053;-87
2021/11/09 14:40:15;;;;;;;4.03;1.30;;;;;;;12.55;83.65;99422.03;10452639;28;20497;-83
2021/11/09 14:45:30;;;;;;;2.63;1.05;;;;;;;12.44;86.60;99420.38;10452867;28;20493;-82
2021/11/09 14:50:39;;;;;;;4.45;1.10;;;;;;;12.30;99.67;99419.00;10438005;28;20135;-83
2021/11/09 14:55:48;;;;;;;4.47;1.02;;;;;;;12.10;100.00;99420.06;10441445;28;20031;-79
2021/11/09 15:00:55;;;;;;;3.60;1.40;;;;;;;11.94;100.00;99417.94;10470250;28;20037;-86
2021/11/09 15:06:01;;;;;;;2.22;1.20;;;;;;;11.65;100.00;99417.00;10432531;28;20124;-83
2021/11/09 15:27:24;;;;;;;3.53;1.23;;;;;;;10.58;100.00;99415.91;10428070;28;20498;-85
2021/11/09 15:32:32;;;;;;;3.40;1.17;;;;;;;10.31;100.00;99427.22;10428969;28;20060;-85
2021/11/09 15:37:37;;;;;;;3.70;0.90;;;;;;;10.10;100.00;99433.50;10426555;28;20041;-85
2021/11/09 15:42:42;;;;;;;2.78;0.95;;;;;;;9.84;100.00;99433.91;10434240;28;20498;-84
2021/11/09 15:47:48;;;;;;;2.28;0.90;;;;;;;9.63;100.00;99439.31;10453895;28;20045;-87
2021/11/09 15:52:51;;;;;;;3.22;0.90;;;;;;;9.44;100.00;99447.22;10449294;28;20057;-85
2021/11/09 15:57:54;;;;;;;3.63;0.95;;;;;;;9.24;100.00;99452.44;10431370;28;20148;-85
2021/11/09 16:02:59;;;;;;;5.53;1.20;;;;;;;9.01;100.00;99448.94;10448986;28;20033;-87
2021/11/09 16:08:03;;;;;;;4.68;1.15;;;;;;;8.76;100.00;99445.59;10428738;28;20068;-85
2021/11/09 16:13:07;;;;;;;2.70;1.15;;;;;;;8.54;100.00;99447.28;10447053;28;20036;-87
2021/11/09 16:18:11;;;;;;;4.32;1.02;;;;;;;8.31;100.00;99444.56;10431730;28;20052;-84
2021/11/09 16:23:18;;;;;;;3.95;1.88;;;;;;;8.18;100.00;99462.63;10450233;28;20049;-84
2021/11/09 16:28:21;;;;;;;6.72;2.30;;;;;;;7.99;100.00;99464.06;10437067;28;20135;-86
2021/11/09 16:33:28;;;;;;;4.50;2.33;;;;;;;7.82;100.00;99470.75;10455913;28;20076;-85
2021/11/09 16:38:33;;;;;;;4.68;1.70;;;;;;;7.69;100.00;99480.69;10454505;28;20076;-86
2021/11/09 16:43:39;;;;;;;4.22;1.50;;;;;;;7.53;100.00;99486.38;10432642;28;20072;-88
2021/11/09 16:48:51;;;;;;;5.28;1.70;;;;;;;7.46;100.00;99485.13;10444198;28;20047;-84
2021/11/09 16:53:58;;;;;;;2.83;1.38;;;;;;;7.33;100.00;99486.06;10422541;28;20059;-85
2021/11/09 16:59:32;;;;;;;3.15;1.45;;;;;;;7.19;100.00;99472.81;10424708;28;20045;-84
2021/11/09 18:20:07;;;;;;;8.88;2.97;;;;;;;5.83;100.00;99393.16;10472646;28;20076;-79
2021/11/09 18:25:12;;;;;;;8.77;2.95;;;;;;;5.84;100.00;99384.16;10459956;28;20588;-79
2021/11/09 18:30:18;;;;;;;8.30;4.47;;;;;;;5.80;100.00;99372.00;10485571;28;20531;-80
2021/11/09 18:35:22;;;;;;;12.68;5.80;;;;;;;5.74;100.00;99361.72;10483619;28;20065;-78
2021/11/09 18:40:28;;;;;;;9.93;5.00;;;;;;;5.73;100.00;99367.19;10465267;28;20060;-78
2021/11/09 18:45:32;;;;;;;11.55;4.57;;;;;;;5.70;100.00;99355.72;10473525;28;20560;-78
2021/11/09 18:50:38;;;;;;;10.23;4.82;;;;;;;5.68;100.00;99363.00;10467631;28;20037;-78
2021/11/09 18:55:42;;;;;;;9.45;4.95;;;;;;;5.65;100.00;99373.91;10453172;28;20045;-78
2021/11/09 19:00:46;;;;;;;10.32;4.45;;;;;;;5.60;100.00;99385.88;10466367;28;20115;-80
2021/11/09 19:05:50;;;;;;;9.88;5.10;;;;;;;5.48;100.00;99390.25;10469620;28;20048;-77
2021/11/09 19:10:54;;;;;;;10.13;5.45;;;;;;;5.32;100.00;99385.94;10453105;28;20052;-77
2021/11/09 19:15:58;;;;;;;10.80;5.47;;;;;;;5.15;100.00;99397.78;10460553;28;20048;-79
2021/11/09 19:21:01;;;;;;;9.73;6.30;;;;;;;5.00;100.00;99398.81;10472857;28;20397;-76
2021/11/09 19:26:09;;;;;;;8.93;5.72;;;;;;;4.80;100.00;99392.09;10467832;28;20044;-77
2021/11/09 19:31:12;;;;;;;11.55;5.38;;;;;;;4.79;100.00;99391.22;10449235;28;20136;-77
2021/11/09 19:36:15;;;;;;;9.65;5.10;;;;;;;4.88;100.00;99387.13;10448868;28;20048;-79
2021/11/09 19:41:35;;;;;;;7.70;4.95;;;;;;;4.94;100.00;99386.69;10473265;28;20545;-80
2021/11/09 19:46:45;;;;;;;9.02;5.25;;;;;;;4.94;100.00;99370.66;10473247;28;20446;-77
2021/11/09 19:51:48;;;;;;;10.75;5.20;;;;;;;4.94;100.00;99381.34;10465903;28;20041;-77
2021/11/09 19:56:53;;;;;;;9.07;5.57;;;;;;;4.90;100.00;99385.19;10454233;28;20049;-76
2021/11/09 20:02:25;;;;;;;9.07;4.93;;;;;;;4.71;100.00;99382.88;10478616;28;20032;-77
2021/11/09 20:07:30;;;;;;;11.02;5.63;;;;;;;4.60;100.00;99381.78;10481060;28;20047;-76
2021/11/09 20:12:35;;;;;;;10.95;6.18;;;;;;;4.55;100.00;99378.53;10455498;28;20048;-76
2021/11/09 20:17:38;;;;;;;11.27;5.90;;;;;;;4.57;100.00;99386.47;10449227;28;20044;-77
2021/11/09 20:22:42;;;;;;;11.68;6.25;;;;;;;4.55;100.00;99397.22;10450992;28;20044;-77
2021/11/09 20:27:53;;;;;;;13.15;6.63;;;;;;;4.54;100.00;99390.16;10472541;28;20056;-76
2021/11/09 20:32:57;;;;;;;10.15;6.18;;;;;;;4.51;100.00;99385.03;10467310;28;20037;-76
2021/11/09 20:38:00;;;;;;;16.02;6.85;;;;;;;4.50;100.00;99391.34;10448212;28;20071;-76
2021/11/09 20:43:06;;;;;;;12.00;6.18;;;;;;;4.43;100.00;99384.66;10469244;28;20061;-76
2021/11/09 20:48:09;;;;;;;10.38;6.30;;;;;;;4.35;100.00;99385.13;10465883;28;20494;-76
2021/11/09 20:53:13;;;;;;;17.92;7.63;;;;;;;4.19;100.00;99382.59;10466673;28;21179;-76
2021/11/09 20:58:18;;;;;;;14.15;8.15;;;;;;;4.15;100.00;99373.09;10444546;28;20059;-76
2021/11/09 21:03:22;;;;;;;13.85;7.90;;;;;;;4.18;100.00;99385.38;10447981;28;20041;-76
2021/11/09 21:08:25;;;;;;;15.13;7.95;;;;;;;4.21;100.00;99386.03;10444034;28;20058;-76
2021/11/09 21:18:56;;;;;;;11.02;7.65;;;;;;;4.12;100.00;99411.47;10460770;28;20045;-77
2021/11/09 21:23:59;;;;;;;13.82;6.93;;;;;;;4.05;100.00;99423.47;10456243;28;20074;-76
2021/11/09 21:29:14;;;;;;;14.55;7.88;;;;;;;3.97;100.00;99415.94;10471177;28;20116;-76
2021/11/09 21:39:41;;;;;;;15.57;10.00;;;;;;;3.96;100.00;99424.03;10436510;28;20041;-76
2021/11/09 21:44:46;;;;;;;15.18;10.05;;;;;;;3.98;100.00;99415.00;10433255;28;20048;-75
2021/11/09 21:49:50;;;;;;;14.65;8.70;;;;;;;3.90;100.00;99419.94;10432746;28;20114;-76
2021/11/09 21:54:53;;;;;;;15.88;9.93;;;;;;;3.87;100.00;99413.97;10412281;28;20056;-76
2021/11/09 21:59:57;;;;;;;13.07;8.70;;;;;;;3.89;100.00;99412.91;10416668;28;20411;-76
2021/11/09 22:05:01;;;;;;;11.60;7.80;;;;;;;3.90;100.00;99408.41;10420950;28;20045;-77
2021/11/09 22:10:05;;;;;;;17.13;7.80;;;;;;;3.91;100.00;99411.00;10416203;28;20045;-76
2021/11/09 22:15:13;;;;;;;11.45;7.25;;;;;;;3.92;100.00;99411.84;10441256;28;20232;-76
2021/11/09 22:20:18;;;;;;;13.45;7.28;;;;;;;3.93;100.00;99406.44;10424127;28;20045;-76
2021/11/09 22:25:23;;;;;;;15.63;6.82;;;;;;;3.92;100.00;99407.38;10428212;28;20138;-76
2021/11/09 22:30:28;;;;;;;12.50;7.57;;;;;;;3.92;100.00;99412.72;10436585;28;20045;-75
2021/11/09 22:35:31;;;;;;;11.45;6.82;;;;;;;3.95;100.00;99409.00;10423555;28;20555;-76
2021/11/09 22:40:35;;;;;;;13.20;6.70;;;;;;;3.95;100.00;99406.34;10474078;28;20116;-76
2021/11/09 22:45:40;;;;;;;11.25;6.30;;;;;;;3.93;100.00;99403.78;10450528;28;20144;-77
2021/11/09 22:50:43;;;;;;;12.57;6.93;;;;;;;3.93;100.00;99394.91;10471183;28;21048;-76
2021/11/09 22:55:47;;;;;;;12.57;7.10;;;;;;;3.92;100.00;99391.38;10491003;28;20044;-76
2021/11/09 23:00:52;;;;;;;9.85;5.60;;;;;;;3.95;100.00;99391.19;10497910;28;20095;-76
2021/11/09 23:05:58;;;;;;;9.95;5.80;;;;;;;3.94;100.00;99400.13;10463704;28;20144;-77
2021/11/09 23:11:02;;;;;;;9.25;5.80;;;;;;;3.97;100.00;99385.78;10451484;28;20049;-76
2021/11/09 23:16:07;;;;;;;9.35;5.47;;;;;;;3.97;100.00;99378.63;10465347;28;20056;-76
2021/11/09 23:21:11;;;;;;;9.38;5.35;;;;;;;3.98;100.00;99385.66;10465276;28;20044;-76
2021/11/09 23:26:14;;;;;;;9.20;5.70;;;;;;;3.97;100.00;99378.63;10460453;28;20072;-76
2021/11/09 23:31:19;;;;;;;12.82;6.00;;;;;;;3.94;100.00;99373.47;10447924;28;20055;-76
2021/11/09 23:36:22;;;;;;;15.77;6.20;;;;;;;3.91;100.00;99362.13;10461920;28;20068;-76
2021/11/09 23:41:25;;;;;;;11.38;5.85;;;;;;;3.87;100.00;99366.81;10438727;28;20049;-76
2021/11/09 23:46:29;;;;;;;9.52;5.80;;;;;;;3.84;100.00;99353.66;10443714;28;20064;-76
2021/11/09 23:51:32;;;;;;;10.15;5.70;;;;;;;3.81;100.00;99353.88;10470439;28;20045;-76
2021/11/09 23:56:35;;;;;;;11.43;6.15;;;;;;;3.77;100.00;99344.34;10462153;28;20128;-76
